createdAt,value
2023-05-18T00:00:14.564Z,96.09
2023-05-18T00:02:42.385Z,97.60
2023-05-18T00:05:11.667Z,98.12
2023-05-18T00:07:39.478Z,99.04
2023-05-18T00:10:08.561Z,98.40
2023-05-18T00:12:36.320Z,99.79
2023-05-18T00:15:04.758Z,100.00
2023-05-18T00:17:33.868Z,100.00
2023-05-18T00:20:01.786Z,100.00
2023-05-18T00:22:30.091Z,100.00
2023-05-18T00:24:57.811Z,100.00
2023-05-18T00:27:25.535Z,100.00
2023-05-18T00:29:53.249Z,100.00
2023-05-18T00:32:20.996Z,100.00
2023-05-18T00:34:50.092Z,100.00
2023-05-18T00:37:17.802Z,100.00
2023-05-18T00:39:45.562Z,100.00
2023-05-18T00:42:13.268Z,100.00
2023-05-18T00:44:41.027Z,100.00
2023-05-18T00:47:09.551Z,100.00
2023-05-18T00:49:37.335Z,100.00
2023-05-18T00:52:07.060Z,100.00
2023-05-18T00:54:36.016Z,100.00
2023-05-18T00:57:03.869Z,100.00
2023-05-18T00:59:32.747Z,100.00
2023-05-18T01:02:01.642Z,100.00
2023-05-18T01:04:31.763Z,100.00
2023-05-18T01:07:06.772Z,100.00
2023-05-18T01:09:36.157Z,100.00
2023-05-18T01:12:09.516Z,100.00
2023-05-18T01:14:41.129Z,100.00
2023-05-18T01:17:14.625Z,100.00
2023-05-18T01:20:14.277Z,100.00
2023-05-18T01:23:14.037Z,100.00
2023-05-18T01:25:49.638Z,100.00
2023-05-18T01:28:22.048Z,100.00
2023-05-18T01:30:49.868Z,100.00
2023-05-18T01:33:17.605Z,100.00
2023-05-18T01:35:48.402Z,100.00
2023-05-18T01:38:17.727Z,100.00
2023-05-18T01:40:49.699Z,100.00
2023-05-18T01:43:20.742Z,100.00
2023-05-18T01:45:50.232Z,100.00
2023-05-18T01:48:22.078Z,100.00
2023-05-18T01:50:50.136Z,100.00
2023-05-18T01:53:23.345Z,100.00
2023-05-18T01:55:51.796Z,100.00
2023-05-18T01:58:21.542Z,100.00
2023-05-18T02:00:49.457Z,100.00
2023-05-18T02:03:18.290Z,100.00
2023-05-18T02:05:46.228Z,100.00
2023-05-18T02:08:13.968Z,100.00
2023-05-18T02:10:41.687Z,100.00
2023-05-18T02:13:09.508Z,100.00
2023-05-18T02:15:38.602Z,100.00
2023-05-18T02:18:08.424Z,100.00
2023-05-18T02:20:37.498Z,100.00
2023-05-18T02:23:05.417Z,100.00
2023-05-18T02:25:33.282Z,100.00
2023-05-18T02:28:01.111Z,100.00
2023-05-18T02:30:29.889Z,100.00
2023-05-18T02:32:59.026Z,100.00
2023-05-18T02:35:26.925Z,100.00
2023-05-18T02:37:55.955Z,100.00
2023-05-18T02:40:23.703Z,100.00
2023-05-18T02:42:51.394Z,100.00
2023-05-18T02:45:20.834Z,100.00
2023-05-18T02:47:48.650Z,100.00
2023-05-18T02:50:17.929Z,100.00
2023-05-18T02:52:45.898Z,100.00
2023-05-18T02:55:14.092Z,100.00
2023-05-18T02:57:47.054Z,100.00
2023-05-18T03:00:16.663Z,100.00
2023-05-18T03:02:48.359Z,100.00
2023-05-18T03:05:18.364Z,100.00
2023-05-18T03:07:50.886Z,100.00
2023-05-18T03:10:19.014Z,100.00
2023-05-18T03:12:46.805Z,100.00
2023-05-18T03:15:17.299Z,100.00
2023-05-18T03:17:45.049Z,100.00
2023-05-18T03:20:14.556Z,100.00
2023-05-18T03:22:43.741Z,100.00
2023-05-18T03:25:11.490Z,100.00
2023-05-18T03:27:39.238Z,100.00
2023-05-18T03:30:08.266Z,100.00
2023-05-18T03:32:37.075Z,100.00
2023-05-18T03:35:05.680Z,100.00
2023-05-18T03:37:33.483Z,100.00
2023-05-18T03:40:12.512Z,100.00
2023-05-18T03:42:41.056Z,100.00
2023-05-18T03:45:09.682Z,100.00
2023-05-18T03:47:37.751Z,100.00
2023-05-18T03:50:06.656Z,100.00
2023-05-18T03:52:34.848Z,100.00
2023-05-18T03:55:04.414Z,100.00
2023-05-18T03:57:32.594Z,100.00
2023-05-18T04:00:00.332Z,100.00
2023-05-18T04:02:28.175Z,100.00
2023-05-18T04:04:58.033Z,100.00
2023-05-18T04:07:25.801Z,100.00
2023-05-18T04:09:56.599Z,100.00
2023-05-18T04:12:25.675Z,100.00
2023-05-18T04:14:54.192Z,100.00
2023-05-18T04:17:22.910Z,100.00
2023-05-18T04:19:51.298Z,100.00
2023-05-18T04:22:19.098Z,100.00
2023-05-18T04:24:47.636Z,100.00
2023-05-18T04:27:16.188Z,100.00
2023-05-18T04:29:47.262Z,100.00
2023-05-18T04:32:15.043Z,100.00
2023-05-18T04:34:42.845Z,100.00
2023-05-18T04:37:10.639Z,100.00
2023-05-18T04:39:41.983Z,100.00
2023-05-18T04:42:10.562Z,100.00
2023-05-18T04:44:39.115Z,100.00
2023-05-18T04:47:08.864Z,100.00
2023-05-18T04:49:36.769Z,99.59
2023-05-18T04:52:06.615Z,97.09
2023-05-18T04:54:34.322Z,97.18
2023-05-18T04:57:02.203Z,98.17
2023-05-18T04:59:29.973Z,99.78
2023-05-18T05:01:57.719Z,97.73
2023-05-18T05:04:26.813Z,96.18
2023-05-18T05:06:54.570Z,98.30
2023-05-18T05:09:22.374Z,99.67
2023-05-18T05:11:50.218Z,99.35
2023-05-18T05:14:18.104Z,98.71
2023-05-18T05:16:45.820Z,99.06
2023-05-18T05:19:13.645Z,99.62
2023-05-18T05:21:42.733Z,99.39
2023-05-18T05:24:10.444Z,100.00
2023-05-18T05:26:38.594Z,97.96
2023-05-18T05:29:06.494Z,95.67
2023-05-18T05:31:34.664Z,95.28
2023-05-18T05:34:02.602Z,92.72
2023-05-18T05:36:31.825Z,90.71
2023-05-18T05:39:01.070Z,90.13
2023-05-18T05:41:29.583Z,90.11
2023-05-18T05:43:58.799Z,91.60
2023-05-18T05:46:26.658Z,92.23
2023-05-18T05:48:54.429Z,91.46
2023-05-18T05:51:22.568Z,90.62
2023-05-18T05:53:50.304Z,88.86
2023-05-18T05:56:19.422Z,85.73
2023-05-18T05:58:47.131Z,86.04
2023-05-18T06:01:14.883Z,84.58
2023-05-18T06:03:45.214Z,85.29
2023-05-18T06:06:14.331Z,84.12
2023-05-18T06:08:42.476Z,85.83
2023-05-18T06:11:11.466Z,83.00
2023-05-18T06:13:40.711Z,80.49
2023-05-18T06:16:08.431Z,79.51
2023-05-18T06:18:36.538Z,79.68
2023-05-18T06:21:04.586Z,75.28
2023-05-18T06:23:32.363Z,76.97
2023-05-18T06:26:00.134Z,79.87
2023-05-18T06:28:27.922Z,76.67
2023-05-18T06:30:57.010Z,75.01
2023-05-18T06:33:24.787Z,72.18
2023-05-18T06:35:52.549Z,68.76
2023-05-18T06:38:20.253Z,71.56
2023-05-18T06:40:47.955Z,67.49
2023-05-18T06:43:15.715Z,68.48
2023-05-18T06:45:43.524Z,68.56
2023-05-18T06:48:12.582Z,68.37
2023-05-18T06:50:40.323Z,70.18
2023-05-18T06:53:08.048Z,66.02
2023-05-18T06:55:35.813Z,67.49
2023-05-18T06:58:03.562Z,65.83
2023-05-18T07:00:31.330Z,68.88
2023-05-18T07:02:59.091Z,69.18
2023-05-18T07:05:30.359Z,69.73
2023-05-18T07:07:58.264Z,69.97
2023-05-18T07:10:26.148Z,66.58
2023-05-18T07:12:53.877Z,66.92
2023-05-18T07:15:21.812Z,63.03
2023-05-18T07:17:49.589Z,62.40
2023-05-18T07:20:17.309Z,60.99
2023-05-18T07:22:46.775Z,63.92
2023-05-18T07:25:14.507Z,62.19
2023-05-18T07:27:42.209Z,60.68
2023-05-18T07:30:10.861Z,59.95
2023-05-18T07:32:38.731Z,55.98
2023-05-18T07:35:07.032Z,56.96
2023-05-18T07:37:35.167Z,57.58
2023-05-18T07:40:05.512Z,56.91
2023-05-18T07:42:33.952Z,55.54
2023-05-18T07:45:01.709Z,56.94
2023-05-18T07:47:29.687Z,53.65
2023-05-18T07:49:57.527Z,51.05
2023-05-18T07:52:25.260Z,50.78
2023-05-18T07:54:53.967Z,48.30
2023-05-18T07:57:23.021Z,46.51
2023-05-18T07:59:50.787Z,50.14
2023-05-18T08:02:19.952Z,50.05
2023-05-18T08:04:48.065Z,51.18
2023-05-18T08:07:15.872Z,51.09
2023-05-18T08:09:44.489Z,52.29
2023-05-18T08:12:12.182Z,50.61
2023-05-18T08:14:41.567Z,50.06
2023-05-18T08:17:09.418Z,48.48
2023-05-18T08:19:39.223Z,47.08
2023-05-18T08:22:08.150Z,47.64
2023-05-18T08:24:35.936Z,49.18
2023-05-18T08:27:04.450Z,49.18
2023-05-18T08:29:32.192Z,52.00
2023-05-18T08:32:01.393Z,54.85
2023-05-18T08:34:30.168Z,55.17
2023-05-18T08:36:57.954Z,55.64
2023-05-18T08:39:25.701Z,55.95
2023-05-18T08:41:58.478Z,51.86
2023-05-18T08:44:28.721Z,51.46
2023-05-18T08:46:57.166Z,52.05
2023-05-18T08:49:27.481Z,50.41
2023-05-18T08:51:57.159Z,50.80
2023-05-18T08:54:25.546Z,52.65
2023-05-18T08:56:54.093Z,51.86
2023-05-18T08:59:25.631Z,48.46
2023-05-18T09:01:55.097Z,50.79
2023-05-18T09:04:23.123Z,50.02
2023-05-18T09:06:52.719Z,50.68
2023-05-18T09:09:21.444Z,48.70
2023-05-18T09:11:49.519Z,49.46
2023-05-18T09:14:17.393Z,48.84
2023-05-18T09:16:45.111Z,46.65
2023-05-18T09:19:12.935Z,48.41
2023-05-18T09:21:40.817Z,46.06
2023-05-18T09:24:09.996Z,45.22
2023-05-18T09:26:37.994Z,44.88
2023-05-18T09:29:16.549Z,44.66
2023-05-18T09:31:44.383Z,48.08
2023-05-18T09:34:12.271Z,51.91
2023-05-18T09:36:40.396Z,51.73
2023-05-18T09:39:11.599Z,49.91
2023-05-18T09:41:40.714Z,49.60
2023-05-18T09:44:09.995Z,50.10
2023-05-18T09:46:38.525Z,50.14
2023-05-18T09:49:07.237Z,50.76
2023-05-18T09:51:38.863Z,50.70
2023-05-18T09:54:10.814Z,49.29
2023-05-18T09:56:38.933Z,51.73
2023-05-18T09:59:10.897Z,52.72
2023-05-18T10:01:38.850Z,49.78
2023-05-18T10:04:07.325Z,49.84
2023-05-18T10:06:35.711Z,50.41
2023-05-18T10:09:04.645Z,49.57
2023-05-18T10:11:34.440Z,48.81
2023-05-18T10:14:02.219Z,50.92
2023-05-18T10:16:30.676Z,51.10
2023-05-18T10:18:58.431Z,50.99
2023-05-18T10:21:28.327Z,50.56
2023-05-18T10:23:56.143Z,49.54
2023-05-18T10:26:24.485Z,50.93
2023-05-18T10:28:54.532Z,50.31
2023-05-18T10:31:22.989Z,50.51
2023-05-18T10:33:51.676Z,48.62
2023-05-18T10:36:19.685Z,50.95
2023-05-18T10:38:48.125Z,50.31
2023-05-18T10:41:16.477Z,49.16
2023-05-18T10:43:46.036Z,48.73
2023-05-18T10:46:16.028Z,49.44
2023-05-18T10:48:43.868Z,49.04
2023-05-18T10:51:11.929Z,50.32
2023-05-18T10:53:43.752Z,51.08
2023-05-18T10:56:11.910Z,51.63
2023-05-18T10:58:39.932Z,50.16
2023-05-18T11:01:10.851Z,46.88
2023-05-18T11:03:41.004Z,48.15
2023-05-18T11:06:10.646Z,49.13
2023-05-18T11:08:45.476Z,49.61
2023-05-18T11:11:13.282Z,50.48
2023-05-18T11:13:45.367Z,48.87
2023-05-18T11:16:13.336Z,48.20
2023-05-18T11:18:46.830Z,49.87
2023-05-18T11:21:32.574Z,47.56
2023-05-18T11:24:24.028Z,49.16
2023-05-18T11:26:53.620Z,50.26
2023-05-18T11:29:23.854Z,48.75
2023-05-18T11:31:53.905Z,50.53
2023-05-18T11:34:53.598Z,49.71
2023-05-18T11:37:48.616Z,47.95
2023-05-18T11:40:47.411Z,48.44
2023-05-18T11:43:25.215Z,49.53
2023-05-18T11:45:55.735Z,48.63
2023-05-18T11:48:25.404Z,48.13
2023-05-18T11:50:55.937Z,48.65
2023-05-18T11:53:24.852Z,46.84
2023-05-18T11:55:54.585Z,47.80
2023-05-18T11:58:22.434Z,48.62
2023-05-18T12:00:50.258Z,48.73
2023-05-18T12:03:18.622Z,50.39
2023-05-18T12:05:49.315Z,48.56
2023-05-18T12:08:19.900Z,49.45
2023-05-18T12:10:47.942Z,48.66
2023-05-18T12:13:18.303Z,47.36
2023-05-18T12:15:47.174Z,46.66
2023-05-18T12:18:15.036Z,47.07
2023-05-18T12:20:43.630Z,47.43
2023-05-18T12:23:11.332Z,46.78
2023-05-18T12:25:41.204Z,48.37
2023-05-18T12:28:09.483Z,47.79
2023-05-18T12:30:38.442Z,48.15
2023-05-18T12:33:06.999Z,48.15
2023-05-18T12:35:35.120Z,47.77
2023-05-18T12:38:03.302Z,45.47
2023-05-18T12:40:38.638Z,45.49
2023-05-18T12:43:07.779Z,46.31
2023-05-18T12:45:35.700Z,46.96
2023-05-18T12:48:07.105Z,45.91
2023-05-18T12:50:37.047Z,47.44
2023-05-18T12:53:04.914Z,46.61
2023-05-18T12:55:33.327Z,45.72
2023-05-18T12:58:02.957Z,46.64
2023-05-18T13:00:35.897Z,46.28
2023-05-18T13:03:08.197Z,46.36
2023-05-18T13:05:36.751Z,47.41
2023-05-18T13:08:04.578Z,46.34
2023-05-18T13:10:33.144Z,47.61
2023-05-18T13:13:03.780Z,47.56
2023-05-18T13:15:36.856Z,46.50
2023-05-18T13:18:05.651Z,45.55
2023-05-18T13:20:36.512Z,46.64
2023-05-18T13:23:06.767Z,45.82
2023-05-18T13:25:34.793Z,44.82
2023-05-18T13:28:02.882Z,44.81
2023-05-18T13:30:31.143Z,43.80
2023-05-18T13:33:00.637Z,43.93
2023-05-18T13:35:28.540Z,43.22
2023-05-18T13:37:56.671Z,43.00
2023-05-18T13:40:25.743Z,44.34
2023-05-18T13:42:53.930Z,45.07
2023-05-18T13:45:22.580Z,44.76
2023-05-18T13:47:51.658Z,43.61
2023-05-18T13:50:23.093Z,44.79
2023-05-18T13:52:51.206Z,45.34
2023-05-18T13:55:19.024Z,45.15
2023-05-18T13:57:47.397Z,44.81
2023-05-18T14:00:17.235Z,43.58
2023-05-18T14:02:46.192Z,44.20
2023-05-18T14:05:14.924Z,42.76
2023-05-18T14:07:44.133Z,41.70
2023-05-18T14:10:12.874Z,43.71
2023-05-18T14:12:42.271Z,43.62
2023-05-18T14:15:11.457Z,42.33
2023-05-18T14:17:39.646Z,43.79
2023-05-18T14:20:08.762Z,44.29
2023-05-18T14:22:36.851Z,44.05
2023-05-18T14:25:06.877Z,42.31
2023-05-18T14:27:34.604Z,41.72
2023-05-18T14:30:02.416Z,40.88
2023-05-18T14:32:30.248Z,42.27
2023-05-18T14:34:58.500Z,41.17
2023-05-18T14:37:26.424Z,41.88
2023-05-18T14:39:54.165Z,43.51
2023-05-18T14:42:23.266Z,41.52
2023-05-18T14:44:50.989Z,42.63
2023-05-18T14:47:19.066Z,41.96
2023-05-18T14:49:46.967Z,42.13
2023-05-18T14:52:15.103Z,43.07
2023-05-18T14:54:43.401Z,41.93
2023-05-18T14:57:11.347Z,41.89
2023-05-18T14:59:40.795Z,40.58
2023-05-18T15:02:09.147Z,41.77
2023-05-18T15:04:37.123Z,41.86
2023-05-18T15:07:05.714Z,42.46
2023-05-18T15:09:33.516Z,42.90
2023-05-18T15:12:01.211Z,42.27
2023-05-18T15:14:28.996Z,40.40
2023-05-18T15:16:58.663Z,41.87
2023-05-18T15:19:26.862Z,41.67
2023-05-18T15:21:54.729Z,41.30
2023-05-18T15:24:22.848Z,42.72
2023-05-18T15:26:50.612Z,42.33
2023-05-18T15:29:18.491Z,42.91
2023-05-18T15:31:46.924Z,41.20
2023-05-18T15:34:16.141Z,41.07
2023-05-18T15:36:43.839Z,42.30
2023-05-18T15:39:11.549Z,41.80
2023-05-18T15:41:39.294Z,41.53
2023-05-18T15:44:07.002Z,42.49
2023-05-18T15:46:35.769Z,41.15
2023-05-18T15:49:03.953Z,40.82
2023-05-18T15:51:33.097Z,41.46
2023-05-18T15:54:01.587Z,40.90
2023-05-18T15:56:29.382Z,42.02
2023-05-18T15:58:57.133Z,41.83
2023-05-18T16:01:24.928Z,43.30
2023-05-18T16:03:52.798Z,42.46
2023-05-18T16:06:20.637Z,41.58
2023-05-18T16:08:49.751Z,42.01
2023-05-18T16:11:17.486Z,40.44
2023-05-18T16:13:45.270Z,40.36
2023-05-18T16:16:14.168Z,39.51
2023-05-18T16:18:42.093Z,39.86
2023-05-18T16:21:09.964Z,39.56
2023-05-18T16:23:37.655Z,40.50
2023-05-18T16:26:06.748Z,40.82
2023-05-18T16:28:34.579Z,40.99
2023-05-18T16:31:04.649Z,40.98
2023-05-18T16:33:32.413Z,40.78
2023-05-18T16:36:00.607Z,41.23
2023-05-18T16:38:28.461Z,41.60
2023-05-18T16:40:56.206Z,42.18
2023-05-18T16:43:25.443Z,41.96
2023-05-18T16:45:53.532Z,42.67
2023-05-18T16:48:21.347Z,42.73
2023-05-18T16:50:49.095Z,42.86
2023-05-18T16:53:16.807Z,42.55
2023-05-18T16:55:44.523Z,42.29
2023-05-18T16:58:12.238Z,42.85
2023-05-18T17:00:41.713Z,40.56
2023-05-18T17:03:09.547Z,41.63
2023-05-18T17:05:37.816Z,42.60
2023-05-18T17:08:05.916Z,42.67
2023-05-18T17:10:35.496Z,42.27
2023-05-18T17:13:03.524Z,43.39
2023-05-18T17:15:31.633Z,43.03
2023-05-18T17:18:01.335Z,41.70
2023-05-18T17:20:29.324Z,41.05
2023-05-18T17:22:57.493Z,41.11
2023-05-18T17:25:26.056Z,40.96
2023-05-18T17:27:53.849Z,41.21
2023-05-18T17:30:21.621Z,41.91
2023-05-18T17:32:50.692Z,41.91
2023-05-18T17:35:19.913Z,42.41
2023-05-18T17:37:48.808Z,42.27
2023-05-18T17:40:16.621Z,42.05
2023-05-18T17:42:44.312Z,42.53
2023-05-18T17:45:12.555Z,42.43
2023-05-18T17:47:41.733Z,43.07
2023-05-18T17:50:10.063Z,42.46
2023-05-18T17:52:39.223Z,43.17
2023-05-18T17:55:08.079Z,43.02
2023-05-18T17:57:35.784Z,43.04
2023-05-18T18:00:03.865Z,43.49
2023-05-18T18:02:31.631Z,43.39
2023-05-18T18:04:59.365Z,42.91
2023-05-18T18:07:27.132Z,42.41
2023-05-18T18:09:56.229Z,42.92
2023-05-18T18:12:24.128Z,42.83
2023-05-18T18:14:51.817Z,43.30
2023-05-18T18:17:19.608Z,43.85
2023-05-18T18:19:47.298Z,43.91
2023-05-18T18:22:15.028Z,43.96
2023-05-18T18:24:42.744Z,43.78
2023-05-18T18:27:11.817Z,43.80
2023-05-18T18:29:39.635Z,43.96
2023-05-18T18:32:08.446Z,43.77
2023-05-18T18:34:36.162Z,44.10
2023-05-18T18:37:04.074Z,44.26
2023-05-18T18:39:31.787Z,43.97
2023-05-18T18:41:59.467Z,43.96
2023-05-18T18:44:28.547Z,44.15
2023-05-18T18:46:56.287Z,44.09
2023-05-18T18:49:24.059Z,44.23
2023-05-18T18:51:53.207Z,44.85
2023-05-18T18:54:23.443Z,45.00
2023-05-18T18:56:51.153Z,45.17
2023-05-18T18:59:19.023Z,45.25
2023-05-18T19:01:48.155Z,45.59
2023-05-18T19:04:15.989Z,45.50
2023-05-18T19:06:43.857Z,46.33
2023-05-18T19:09:11.614Z,46.24
2023-05-18T19:11:39.745Z,46.99
2023-05-18T19:14:07.457Z,47.34
2023-05-18T19:16:35.434Z,47.43
2023-05-18T19:19:08.693Z,47.89
2023-05-18T19:21:36.790Z,48.38
2023-05-18T19:24:04.654Z,48.71
2023-05-18T19:26:32.864Z,48.95
2023-05-18T19:29:00.586Z,49.10
2023-05-18T19:31:31.593Z,49.83
2023-05-18T19:34:00.651Z,50.22
2023-05-18T19:36:29.820Z,50.41
2023-05-18T19:38:57.514Z,50.52
2023-05-18T19:41:25.458Z,51.31
2023-05-18T19:43:54.198Z,51.49
2023-05-18T19:46:22.045Z,52.05
2023-05-18T19:48:49.847Z,52.25
2023-05-18T19:51:18.515Z,52.90
2023-05-18T19:53:47.592Z,53.14
2023-05-18T19:56:15.304Z,54.16
2023-05-18T19:58:43.478Z,53.87
2023-05-18T20:01:11.773Z,55.01
2023-05-18T20:03:42.443Z,55.41
2023-05-18T20:06:12.073Z,56.58
2023-05-18T20:08:39.853Z,57.66
2023-05-18T20:11:08.972Z,60.21
2023-05-18T20:13:36.819Z,60.88
2023-05-18T20:16:05.806Z,61.32
2023-05-18T20:18:34.958Z,62.64
2023-05-18T20:21:03.197Z,64.30
2023-05-18T20:23:30.990Z,64.46
2023-05-18T20:25:58.751Z,65.46
2023-05-18T20:28:28.755Z,66.05
2023-05-18T20:30:56.502Z,66.61
2023-05-18T20:33:24.260Z,68.54
2023-05-18T20:35:52.010Z,71.44
2023-05-18T20:38:19.694Z,73.81
2023-05-18T20:40:51.188Z,75.25
2023-05-18T20:43:19.149Z,78.22
2023-05-18T20:45:49.394Z,79.42
2023-05-18T20:48:24.644Z,79.88
2023-05-18T20:50:52.766Z,83.54
2023-05-18T20:53:20.735Z,84.26
2023-05-18T20:55:49.739Z,86.02
2023-05-18T20:58:19.149Z,88.11
2023-05-18T21:00:48.440Z,89.21
2023-05-18T21:03:18.337Z,91.22
2023-05-18T21:05:49.518Z,90.95
2023-05-18T21:08:17.347Z,93.71
2023-05-18T21:10:45.481Z,95.58
2023-05-18T21:13:13.578Z,97.82
2023-05-18T21:15:41.458Z,99.25
2023-05-18T21:18:10.803Z,100.00
2023-05-18T21:20:38.524Z,100.00
2023-05-18T21:23:06.268Z,100.00
2023-05-18T21:25:34.001Z,100.00
2023-05-18T21:28:01.709Z,100.00
2023-05-18T21:30:31.730Z,100.00
2023-05-18T21:32:59.810Z,100.00
2023-05-18T21:35:29.031Z,100.00
2023-05-18T21:37:56.895Z,100.00
2023-05-18T21:40:25.029Z,100.00
2023-05-18T21:42:53.939Z,100.00
2023-05-18T21:45:22.543Z,100.00
2023-05-18T21:47:50.865Z,100.00
2023-05-18T21:50:18.757Z,100.00
2023-05-18T21:52:47.844Z,100.00
2023-05-18T21:55:15.640Z,100.00
2023-05-18T21:57:43.406Z,100.00
2023-05-18T22:00:13.707Z,100.00
2023-05-18T22:02:41.620Z,100.00
2023-05-18T22:05:10.560Z,100.00
2023-05-18T22:07:38.355Z,100.00
2023-05-18T22:10:08.190Z,100.00
2023-05-18T22:12:37.544Z,100.00
2023-05-18T22:15:05.903Z,100.00
2023-05-18T22:17:34.199Z,100.00
2023-05-18T22:20:02.022Z,100.00
2023-05-18T22:22:30.919Z,100.00
2023-05-18T22:24:58.860Z,100.00
2023-05-18T22:27:27.959Z,100.00
2023-05-18T22:29:55.710Z,100.00
2023-05-18T22:32:23.627Z,100.00
2023-05-18T22:34:51.882Z,100.00
2023-05-18T22:37:20.068Z,100.00
2023-05-18T22:39:47.742Z,100.00
2023-05-18T22:42:15.810Z,100.00
2023-05-18T22:44:45.755Z,100.00
2023-05-18T22:47:13.530Z,100.00
2023-05-18T22:49:41.381Z,100.00
2023-05-18T22:52:10.285Z,100.00
2023-05-18T22:54:38.036Z,100.00
2023-05-18T22:57:06.162Z,100.00
2023-05-18T22:59:33.861Z,100.00
2023-05-18T23:02:02.949Z,100.00
2023-05-18T23:04:30.808Z,100.00
2023-05-18T23:06:58.561Z,100.00
2023-05-18T23:09:27.070Z,100.00
2023-05-18T23:11:55.722Z,100.00
2023-05-18T23:14:24.190Z,100.00
2023-05-18T23:16:53.433Z,100.00
2023-05-18T23:19:23.708Z,100.00
2023-05-18T23:21:51.533Z,100.00
2023-05-18T23:24:19.300Z,100.00
2023-05-18T23:26:47.048Z,100.00
2023-05-18T23:29:14.794Z,100.00
2023-05-18T23:31:42.516Z,100.00
2023-05-18T23:34:10.935Z,100.00
2023-05-18T23:36:42.861Z,100.00
2023-05-18T23:39:11.688Z,100.00
2023-05-18T23:41:40.322Z,100.00
2023-05-18T23:44:08.628Z,100.00
2023-05-18T23:46:37.002Z,100.00
2023-05-18T23:49:05.274Z,100.00
2023-05-18T23:51:36.309Z,100.00
2023-05-18T23:54:07.133Z,100.00
2023-05-18T23:56:35.671Z,100.00
2023-05-18T23:59:03.845Z,100.00
